Time;durP1;ratioP1;P1;durP2;ratioP2;P2;SDS_P1;SDS_P2;PMS_P1;PMS_P2;Temp;Humidity;BMP_temperature;BMP_pressure;BME280_temperature;BME280_humidity;BME280_pressure;Samples;Min_cycle;Max_cycle;Signal;HPM_P1;HPM_P2
2024/04/13 00:03:34;;;;;;;9.50;5.72;;;;;;;;;;11192174;25;20026;-60
2024/04/13 00:08:34;;;;;;;9.13;6.37;;;;;;;;;;11197395;25;20025;-59
2024/04/13 00:13:35;;;;;;;10.10;5.72;;;;;;;;;;11196910;25;20024;-60
2024/04/13 00:18:37;;;;;;;14.88;5.75;;;;;;;;;;11194910;25;20034;-60
2024/04/13 00:23:38;;;;;;;12.50;5.50;;;;;;;;;;11193176;25;20038;-59
2024/04/13 00:28:38;;;;;;;9.23;5.10;;;;;;;;;;11189634;25;20037;-60
2024/04/13 00:33:41;;;;;;;12.98;5.45;;;;;;;;;;11194649;25;20047;-60
2024/04/13 00:38:41;;;;;;;9.95;5.28;;;;;;;;;;11191445;25;20029;-60
2024/04/13 00:43:42;;;;;;;11.48;5.82;;;;;;;;;;11188592;25;20029;-60
2024/04/13 00:48:48;;;;;;;7.85;5.35;;;;;;;;;;11189042;25;20022;-59
2024/04/13 00:53:49;;;;;;;14.35;5.38;;;;;;;;;;11186994;25;20467;-58
2024/04/13 00:58:51;;;;;;;7.72;5.28;;;;;;;;;;11190900;25;20025;-59
2024/04/13 01:03:54;;;;;;;7.45;5.15;;;;;;;;;;11192740;25;20029;-59
2024/04/13 01:08:54;;;;;;;10.32;5.28;;;;;;;;;;11190498;25;20043;-59
2024/04/13 01:13:54;;;;;;;6.93;5.63;;;;;;;;;;11192194;25;20474;-60
2024/04/13 01:18:58;;;;;;;8.73;5.70;;;;;;;;;;11190722;25;20038;-59
2024/04/13 01:24:04;;;;;;;9.27;5.43;;;;;;;;;;11194878;25;20068;-59
2024/04/13 01:29:05;;;;;;;6.47;5.72;;;;;;;;;;11188791;25;20025;-59
2024/04/13 01:34:05;;;;;;;8.38;5.20;;;;;;;;;;11194456;25;20029;-60
2024/04/13 01:39:09;;;;;;;6.35;5.30;;;;;;;;;;11189216;25;20025;-59
2024/04/13 01:44:11;;;;;;;10.70;5.35;;;;;;;;;;11186305;25;20042;-59
2024/04/13 01:49:12;;;;;;;7.28;5.88;;;;;;;;;;11189524;25;20025;-60
2024/04/13 01:54:15;;;;;;;8.23;5.25;;;;;;;;;;11193056;25;20031;-59
2024/04/13 01:59:15;;;;;;;10.98;5.20;;;;;;;;;;11187036;25;20034;-59
2024/04/13 02:04:15;;;;;;;12.07;5.50;;;;;;;;;;11189216;25;20037;-58
2024/04/13 02:09:18;;;;;;;7.72;5.10;;;;;;;;;;11185695;25;20043;-60
2024/04/13 02:14:19;;;;;;;9.90;5.15;;;;;;;;;;11194727;25;20026;-59
2024/04/13 02:19:19;;;;;;;7.68;5.10;;;;;;;;;;11191310;25;20025;-59
2024/04/13 02:24:23;;;;;;;7.03;5.03;;;;;;;;;;11184651;25;20041;-59
2024/04/13 02:29:25;;;;;;;9.50;5.97;;;;;;;;;;11190651;25;19998;-58
2024/04/13 02:34:25;;;;;;;5.97;5.30;;;;;;;;;;11186672;25;20399;-58
2024/04/13 02:39:28;;;;;;;9.50;5.50;;;;;;;;;;11189231;25;20035;-58
2024/04/13 02:44:29;;;;;;;13.35;5.45;;;;;;;;;;11185936;25;20372;-58
2024/04/13 02:49:29;;;;;;;7.68;5.25;;;;;;;;;;11187878;25;20022;-59
2024/04/13 02:54:32;;;;;;;7.85;5.30;;;;;;;;;;11189610;25;20038;-58
2024/04/13 02:59:32;;;;;;;9.65;5.78;;;;;;;;;;11188529;25;20154;-58
2024/04/13 03:04:34;;;;;;;7.43;5.28;;;;;;;;;;11189046;25;20022;-58
2024/04/13 03:09:37;;;;;;;6.10;4.72;;;;;;;;;;11183842;25;20026;-59
2024/04/13 03:14:37;;;;;;;7.47;5.50;;;;;;;;;;11190117;25;20491;-60
2024/04/13 03:19:37;;;;;;;6.97;5.40;;;;;;;;;;11189050;25;20035;-60
2024/04/13 03:24:40;;;;;;;9.70;5.70;;;;;;;;;;11187988;25;20022;-60
2024/04/13 03:29:43;;;;;;;5.60;5.00;;;;;;;;;;11198588;25;20033;-59
2024/04/13 03:34:43;;;;;;;7.85;5.32;;;;;;;;;;11187821;25;20027;-59
2024/04/13 03:39:46;;;;;;;9.68;6.20;;;;;;;;;;11179085;25;20030;-59
2024/04/13 03:44:47;;;;;;;7.57;5.07;;;;;;;;;;11183269;25;20506;-61
2024/04/13 03:49:47;;;;;;;8.30;5.15;;;;;;;;;;11187686;25;20034;-60
2024/04/13 03:54:50;;;;;;;8.68;4.90;;;;;;;;;;11190264;25;20025;-59
2024/04/13 03:59:50;;;;;;;7.40;5.38;;;;;;;;;;11184463;25;20021;-59
2024/04/13 04:04:50;;;;;;;9.98;5.18;;;;;;;;;;11177505;25;20042;-59
2024/04/13 04:09:53;;;;;;;12.57;5.75;;;;;;;;;;11186243;25;20029;-59
2024/04/13 04:14:54;;;;;;;9.02;5.93;;;;;;;;;;11186204;25;20050;-59
2024/04/13 04:19:54;;;;;;;8.88;5.30;;;;;;;;;;11187442;25;20534;-59
2024/04/13 04:25:00;;;;;;;6.40;5.15;;;;;;;;;;11191837;25;20034;-58
2024/04/13 04:30:00;;;;;;;8.75;5.53;;;;;;;;;;11191598;25;20030;-59
2024/04/13 04:35:00;;;;;;;5.63;4.85;;;;;;;;;;11198161;25;20377;-60
2024/04/13 04:40:03;;;;;;;7.10;6.15;;;;;;;;;;11191982;25;20033;-60
2024/04/13 04:45:04;;;;;;;10.57;5.85;;;;;;;;;;11189716;25;20038;-59
2024/04/13 04:50:04;;;;;;;11.82;5.38;;;;;;;;;;11192081;25;20053;-60
2024/04/13 04:55:09;;;;;;;8.63;5.55;;;;;;;;;;11192844;25;20083;-59
2024/04/13 05:00:14;;;;;;;10.57;5.80;;;;;;;;;;11181058;25;20025;-59
2024/04/13 05:05:15;;;;;;;11.20;4.85;;;;;;;;;;11190671;25;20025;-59
2024/04/13 05:10:18;;;;;;;11.93;6.53;;;;;;;;;;11191742;25;20033;-59
2024/04/13 05:15:18;;;;;;;13.70;7.18;;;;;;;;;;11192734;25;20021;-59
2024/04/13 05:20:18;;;;;;;16.23;8.23;;;;;;;;;;11190318;25;20072;-59
2024/04/13 05:25:21;;;;;;;14.90;8.25;;;;;;;;;;11192151;25;20043;-59
2024/04/13 05:30:22;;;;;;;10.10;7.13;;;;;;;;;;11187048;25;20033;-59
2024/04/13 05:35:22;;;;;;;13.40;7.95;;;;;;;;;;11189923;25;20029;-60
2024/04/13 05:40:25;;;;;;;9.23;6.15;;;;;;;;;;11190417;25;20025;-60
2024/04/13 05:45:26;;;;;;;13.15;6.03;;;;;;;;;;11186899;25;20026;-60
2024/04/13 05:50:26;;;;;;;11.02;5.93;;;;;;;;;;11190964;25;20056;-60
2024/04/13 05:55:29;;;;;;;7.53;4.80;;;;;;;;;;11189089;25;20045;-59
2024/04/13 06:00:30;;;;;;;13.13;4.95;;;;;;;;;;11188167;25;20025;-60
2024/04/13 06:05:30;;;;;;;6.70;4.90;;;;;;;;;;11191331;25;20038;-59
2024/04/13 06:10:33;;;;;;;14.52;6.22;;;;;;;;;;11191460;25;20037;-59
2024/04/13 06:15:33;;;;;;;10.80;4.93;;;;;;;;;;11190041;25;20384;-59
2024/04/13 06:20:36;;;;;;;10.15;4.90;;;;;;;;;;11189873;25;20030;-58
2024/04/13 06:25:39;;;;;;;8.27;5.35;;;;;;;;;;11188045;25;20378;-59
2024/04/13 06:30:42;;;;;;;6.65;4.72;;;;;;;;;;11191133;25;20034;-58
2024/04/13 06:35:49;;;;;;;7.63;4.65;;;;;;;;;;11194014;25;20022;-59
2024/04/13 06:40:52;;;;;;;6.77;4.13;;;;;;;;;;11181891;25;20601;-59
2024/04/13 06:45:53;;;;;;;5.88;4.65;;;;;;;;;;11185114;25;20030;-58
2024/04/13 06:50:53;;;;;;;5.75;4.43;;;;;;;;;;11184744;25;20487;-59
2024/04/13 06:55:56;;;;;;;11.75;4.25;;;;;;;;;;11193755;26;20471;-59
2024/04/13 07:00:57;;;;;;;9.25;4.05;;;;;;;;;;11190073;25;20371;-59
2024/04/13 07:05:58;;;;;;;8.63;4.75;;;;;;;;;;11189271;25;20085;-59
2024/04/13 07:11:02;;;;;;;12.98;4.68;;;;;;;;;;11191446;25;20026;-61
2024/04/13 07:16:02;;;;;;;7.60;3.90;;;;;;;;;;11187241;25;20030;-59
2024/04/13 07:21:03;;;;;;;6.60;3.50;;;;;;;;;;11190986;25;20041;-60
2024/04/13 07:26:06;;;;;;;8.95;3.00;;;;;;;;;;11187321;25;20481;-60
2024/04/13 07:31:06;;;;;;;7.85;3.20;;;;;;;;;;11183323;25;20030;-60
2024/04/13 07:36:07;;;;;;;8.25;3.15;;;;;;;;;;11192159;25;20027;-61
2024/04/13 07:41:09;;;;;;;6.03;2.97;;;;;;;;;;11185076;25;20021;-60
2024/04/13 07:46:10;;;;;;;4.95;2.95;;;;;;;;;;11175925;25;20030;-60
2024/04/13 07:51:10;;;;;;;7.63;3.20;;;;;;;;;;11185244;25;20380;-60
2024/04/13 07:56:13;;;;;;;4.15;2.70;;;;;;;;;;11193208;25;20037;-60
2024/04/13 08:01:14;;;;;;;5.55;2.70;;;;;;;;;;11193739;25;20025;-61
2024/04/13 08:06:15;;;;;;;5.60;2.90;;;;;;;;;;11197258;25;20029;-60
2024/04/13 08:11:18;;;;;;;7.82;2.63;;;;;;;;;;11193197;25;20026;-60
2024/04/13 08:16:18;;;;;;;4.10;2.50;;;;;;;;;;11196866;25;20042;-60
2024/04/13 08:21:19;;;;;;;6.28;2.70;;;;;;;;;;11194078;25;20025;-60
2024/04/13 08:26:22;;;;;;;7.38;2.78;;;;;;;;;;11203530;25;20037;-60
2024/04/13 08:31:23;;;;;;;7.15;2.72;;;;;;;;;;11195196;25;20025;-61
2024/04/13 08:36:23;;;;;;;3.92;2.08;;;;;;;;;;11194755;25;20033;-60
2024/04/13 08:41:29;;;;;;;8.27;3.08;;;;;;;;;;11185808;25;20026;-60
2024/04/13 08:46:29;;;;;;;4.75;2.80;;;;;;;;;;11181499;25;20026;-59
2024/04/13 08:51:30;;;;;;;4.63;2.88;;;;;;;;;;11193307;25;20026;-60
2024/04/13 08:56:33;;;;;;;11.00;3.60;;;;;;;;;;11200065;25;20018;-59
2024/04/13 09:01:36;;;;;;;7.37;2.90;;;;;;;;;;11191853;25;20495;-58
2024/04/13 09:06:36;;;;;;;5.78;3.35;;;;;;;;;;11192895;25;20290;-59
2024/04/13 09:11:40;;;;;;;4.50;2.97;;;;;;;;;;11198029;25;20901;-60
2024/04/13 09:16:41;;;;;;;8.90;3.95;;;;;;;;;;11192336;25;20053;-59
2024/04/13 09:21:42;;;;;;;4.78;3.28;;;;;;;;;;11181488;25;20018;-60
2024/04/13 09:26:49;;;;;;;4.85;2.72;;;;;;;;;;11186682;25;20002;-60
2024/04/13 09:31:49;;;;;;;7.18;3.00;;;;;;;;;;11186104;25;20038;-58
2024/04/13 09:36:50;;;;;;;7.35;3.30;;;;;;;;;;11191124;25;20034;-59
2024/04/13 09:41:53;;;;;;;7.63;3.00;;;;;;;;;;11186915;25;20041;-58
2024/04/13 09:46:53;;;;;;;6.82;4.13;;;;;;;;;;11194469;25;20033;-58
2024/04/13 09:51:53;;;;;;;3.60;3.28;;;;;;;;;;11178563;25;20458;-57
2024/04/13 09:56:58;;;;;;;6.90;3.72;;;;;;;;;;11186845;25;20490;-57
2024/04/13 10:01:58;;;;;;;7.60;3.67;;;;;;;;;;11199151;25;20029;-58
2024/04/13 10:07:00;;;;;;;6.70;3.78;;;;;;;;;;11184035;25;19998;-58
2024/04/13 10:12:06;;;;;;;9.63;3.25;;;;;;;;;;11176844;25;20016;-60
2024/04/13 10:17:07;;;;;;;5.38;2.80;;;;;;;;;;11177970;25;20016;-59
2024/04/13 10:22:08;;;;;;;7.70;3.78;;;;;;;;;;11192740;26;20080;-60
2024/04/13 10:27:26;;;;;;;5.68;3.28;;;;;;;;;;11194586;25;20038;-59
2024/04/13 10:32:26;;;;;;;9.17;3.93;;;;;;;;;;11188541;25;20025;-58
2024/04/13 10:37:33;;;;;;;11.70;3.97;;;;;;;;;;11189629;25;20029;-59
2024/04/13 10:42:43;;;;;;;9.02;3.13;;;;;;;;;;11190835;25;20054;-59
2024/04/13 10:47:45;;;;;;;5.25;3.47;;;;;;;;;;11196215;25;20034;-59
2024/04/13 10:52:46;;;;;;;12.30;4.15;;;;;;;;;;11187236;25;19998;-59
2024/04/13 10:57:52;;;;;;;9.65;3.67;;;;;;;;;;11186586;25;20046;-59
2024/04/13 11:02:54;;;;;;;5.35;3.42;;;;;;;;;;11188557;25;20033;-60
2024/04/13 11:07:54;;;;;;;5.03;3.50;;;;;;;;;;11182754;25;20051;-59
2024/04/13 11:12:57;;;;;;;6.20;3.72;;;;;;;;;;11187323;25;20042;-60
2024/04/13 11:17:58;;;;;;;12.90;3.60;;;;;;;;;;11185758;25;20021;-60
2024/04/13 11:22:58;;;;;;;5.40;4.30;;;;;;;;;;11190317;26;20394;-58
2024/04/13 11:28:03;;;;;;;6.57;3.85;;;;;;;;;;11187404;25;20476;-57
2024/04/13 11:33:03;;;;;;;6.00;3.90;;;;;;;;;;11195576;25;20029;-60
2024/04/13 11:38:04;;;;;;;8.43;4.80;;;;;;;;;;11195792;25;20029;-59
2024/04/13 11:43:07;;;;;;;5.95;3.63;;;;;;;;;;11196930;25;20468;-59
2024/04/13 11:48:07;;;;;;;8.13;4.23;;;;;;;;;;11186696;25;20479;-60
2024/04/13 11:53:08;;;;;;;6.95;4.07;;;;;;;;;;11192920;25;20030;-59
2024/04/13 11:58:21;;;;;;;3.60;3.30;;;;;;;;;;11195072;25;20026;-59
2024/04/13 12:03:21;;;;;;;11.98;5.10;;;;;;;;;;11195720;25;20589;-57
2024/04/13 12:08:28;;;;;;;5.75;4.00;;;;;;;;;;11195795;25;20483;-59
2024/04/13 12:13:31;;;;;;;10.82;4.43;;;;;;;;;;11192333;25;20024;-60
2024/04/13 12:18:32;;;;;;;6.78;3.38;;;;;;;;;;11198245;25;20034;-59
2024/04/13 12:23:32;;;;;;;8.27;4.03;;;;;;;;;;11193757;25;20029;-60
2024/04/13 12:28:36;;;;;;;8.05;4.22;;;;;;;;;;11191955;25;20026;-58
2024/04/13 12:33:37;;;;;;;9.23;3.60;;;;;;;;;;11190262;25;20022;-59
2024/04/13 12:38:37;;;;;;;5.50;3.72;;;;;;;;;;11196257;25;20046;-60
2024/04/13 12:43:40;;;;;;;5.57;3.72;;;;;;;;;;11189917;25;20062;-60
2024/04/13 12:48:40;;;;;;;8.00;4.50;;;;;;;;;;11187378;25;20025;-55
2024/04/13 12:53:42;;;;;;;4.47;3.47;;;;;;;;;;11193306;25;20029;-60
2024/04/13 12:58:45;;;;;;;13.43;4.35;;;;;;;;;;11193066;25;20491;-60
2024/04/13 13:03:49;;;;;;;11.50;4.07;;;;;;;;;;11198212;25;20038;-60
2024/04/13 13:08:50;;;;;;;10.10;4.32;;;;;;;;;;11200291;25;20026;-61
2024/04/13 13:13:53;;;;;;;8.30;4.50;;;;;;;;;;11197069;25;20034;-59
2024/04/13 13:18:53;;;;;;;8.07;4.57;;;;;;;;;;11188170;25;20495;-59
2024/04/13 13:23:53;;;;;;;4.30;3.90;;;;;;;;;;11198971;25;20025;-59
2024/04/13 13:29:02;;;;;;;7.07;4.20;;;;;;;;;;11185312;25;20038;-60
2024/04/13 13:34:05;;;;;;;7.65;4.88;;;;;;;;;;11187969;25;20026;-60
2024/04/13 13:39:07;;;;;;;9.13;4.75;;;;;;;;;;11192034;25;20030;-59
2024/04/13 13:44:10;;;;;;;8.02;4.35;;;;;;;;;;11193132;25;20371;-61
2024/04/13 13:49:11;;;;;;;10.07;6.17;;;;;;;;;;11195801;25;20370;-60
2024/04/13 13:54:11;;;;;;;10.07;3.97;;;;;;;;;;11183456;25;20042;-60
2024/04/13 13:59:14;;;;;;;4.72;4.05;;;;;;;;;;11189052;25;20026;-59
2024/04/13 14:04:15;;;;;;;4.97;3.70;;;;;;;;;;11192937;25;20025;-59
2024/04/13 14:09:15;;;;;;;8.90;4.00;;;;;;;;;;11193780;25;20026;-59
2024/04/13 14:14:19;;;;;;;6.88;4.10;;;;;;;;;;11189908;25;20030;-59
2024/04/13 14:19:19;;;;;;;5.68;4.03;;;;;;;;;;11192692;25;20025;-60
2024/04/13 14:24:21;;;;;;;6.68;4.00;;;;;;;;;;11192647;25;20045;-60
2024/04/13 14:29:23;;;;;;;9.23;3.67;;;;;;;;;;11189985;25;20034;-60
2024/04/13 14:34:27;;;;;;;7.57;4.97;;;;;;;;;;11185853;25;20286;-59
2024/04/13 14:39:27;;;;;;;12.13;5.00;;;;;;;;;;11188397;25;20022;-59
2024/04/13 14:44:30;;;;;;;7.75;3.83;;;;;;;;;;11187413;25;20483;-61
2024/04/13 14:49:30;;;;;;;7.17;3.43;;;;;;;;;;11186072;25;20456;-59
2024/04/13 14:54:31;;;;;;;4.70;3.60;;;;;;;;;;11195157;25;20033;-59
2024/04/13 14:59:34;;;;;;;6.68;4.43;;;;;;;;;;11206533;25;20029;-59
2024/04/13 15:04:34;;;;;;;10.97;3.87;;;;;;;;;;11223674;25;20038;-60
2024/04/13 15:09:34;;;;;;;5.95;3.58;;;;;;;;;;11202990;25;20033;-61
2024/04/13 15:14:38;;;;;;;4.47;3.90;;;;;;;;;;11194830;25;20368;-60
2024/04/13 15:19:38;;;;;;;12.10;4.47;;;;;;;;;;11185972;25;20030;-59
2024/04/13 15:24:39;;;;;;;6.40;4.28;;;;;;;;;;11189777;25;20065;-59
2024/04/13 15:29:42;;;;;;;7.28;3.83;;;;;;;;;;11182996;25;20025;-59
2024/04/13 15:34:42;;;;;;;7.83;4.20;;;;;;;;;;11177053;25;20038;-59
2024/04/13 15:39:42;;;;;;;7.38;4.60;;;;;;;;;;11182488;25;20713;-60
2024/04/13 15:44:45;;;;;;;12.68;4.32;;;;;;;;;;11185637;25;20081;-60
2024/04/13 15:49:46;;;;;;;9.83;5.17;;;;;;;;;;11183326;25;20041;-60
2024/04/13 15:54:48;;;;;;;6.38;4.10;;;;;;;;;;11185833;25;20499;-59
2024/04/13 15:59:52;;;;;;;5.35;4.10;;;;;;;;;;11187004;25;20033;-60
2024/04/13 16:04:54;;;;;;;11.45;3.97;;;;;;;;;;11175575;25;20026;-61
2024/04/13 16:09:54;;;;;;;5.45;4.15;;;;;;;;;;11184653;25;20648;-59
2024/04/13 16:14:57;;;;;;;10.32;4.15;;;;;;;;;;11187504;25;20046;-59
2024/04/13 16:19:58;;;;;;;12.07;3.92;;;;;;;;;;11193306;25;20033;-59
2024/04/13 16:24:58;;;;;;;13.82;4.82;;;;;;;;;;11188750;25;20030;-60
2024/04/13 16:30:01;;;;;;;7.65;3.63;;;;;;;;;;11189012;25;20387;-59
2024/04/13 16:35:03;;;;;;;11.02;4.03;;;;;;;;;;11191564;25;20387;-58
2024/04/13 16:40:03;;;;;;;7.82;4.25;;;;;;;;;;11192689;25;20034;-58
2024/04/13 16:45:06;;;;;;;6.30;3.40;;;;;;;;;;11182604;25;20045;-58
2024/04/13 16:50:07;;;;;;;6.83;4.03;;;;;;;;;;11183900;25;20035;-58
2024/04/13 16:55:07;;;;;;;8.50;4.50;;;;;;;;;;11191416;25;20473;-57
2024/04/13 17:00:11;;;;;;;8.70;4.75;;;;;;;;;;11193975;25;20483;-58
2024/04/13 17:05:11;;;;;;;6.63;4.75;;;;;;;;;;11190388;25;20034;-58
2024/04/13 17:10:12;;;;;;;4.57;3.75;;;;;;;;;;11190211;25;19998;-57
2024/04/13 17:15:14;;;;;;;8.65;3.92;;;;;;;;;;11186391;25;20529;-57
2024/04/13 17:20:15;;;;;;;6.43;4.55;;;;;;;;;;11185910;25;20002;-59
2024/04/13 17:25:15;;;;;;;6.07;3.70;;;;;;;;;;11185428;25;20022;-59
2024/04/13 17:30:18;;;;;;;7.95;4.15;;;;;;;;;;11181245;25;20349;-56
2024/04/13 17:35:18;;;;;;;5.93;4.27;;;;;;;;;;11177412;25;20015;-58
2024/04/13 17:40:19;;;;;;;17.02;12.35;;;;;;;;;;11176438;25;19998;-66
2024/04/13 17:45:22;;;;;;;37.28;29.85;;;;;;;;;;11193712;25;20693;-65
2024/04/13 17:50:22;;;;;;;9.77;6.57;;;;;;;;;;11188368;25;20109;-66
2024/04/13 17:55:24;;;;;;;9.02;4.75;;;;;;;;;;11190240;25;20002;-66
2024/04/13 18:00:27;;;;;;;7.78;4.43;;;;;;;;;;11178530;25;20003;-65
2024/04/13 18:05:28;;;;;;;6.90;4.87;;;;;;;;;;11179000;25;20002;-65
2024/04/13 18:10:29;;;;;;;12.00;5.15;;;;;;;;;;11178146;25;20339;-64
2024/04/13 18:15:32;;;;;;;7.35;4.93;;;;;;;;;;11187080;25;20033;-64
2024/04/13 18:20:33;;;;;;;4.57;3.90;;;;;;;;;;11174010;25;20033;-64
2024/04/13 18:25:33;;;;;;;8.25;4.20;;;;;;;;;;11186069;25;20878;-65
2024/04/13 18:30:36;;;;;;;10.20;4.50;;;;;;;;;;11182436;25;20033;-65
2024/04/13 18:35:37;;;;;;;6.93;4.47;;;;;;;;;;11193763;25;20379;-65
2024/04/13 18:40:37;;;;;;;8.00;3.90;;;;;;;;;;11178340;25;20202;-66
2024/04/13 18:45:40;;;;;;;7.43;4.05;;;;;;;;;;11182036;25;20018;-65
2024/04/13 18:50:41;;;;;;;6.83;4.00;;;;;;;;;;11186962;25;20027;-66
2024/04/13 18:55:41;;;;;;;6.30;4.15;;;;;;;;;;11172274;25;20002;-65
2024/04/13 19:00:44;;;;;;;4.93;3.92;;;;;;;;;;11191413;25;20026;-65
2024/04/13 19:05:45;;;;;;;6.00;4.43;;;;;;;;;;11177643;25;20378;-65
2024/04/13 19:10:45;;;;;;;5.63;3.72;;;;;;;;;;11178930;25;19997;-65
2024/04/13 19:15:51;;;;;;;5.70;3.97;;;;;;;;;;11193749;25;20037;-64
2024/04/13 19:21:07;;;;;;;5.50;3.30;;;;;;;;;;11190076;25;20022;-66
2024/04/13 19:26:09;;;;;;;10.90;4.80;;;;;;;;;;11184887;25;20029;-65
2024/04/13 19:31:12;;;;;;;8.38;5.80;;;;;;;;;;11184721;25;20373;-65
2024/04/13 19:36:13;;;;;;;8.17;7.07;;;;;;;;;;11176475;25;20042;-64
2024/04/13 19:41:13;;;;;;;12.48;7.57;;;;;;;;;;11207541;25;20451;-65
2024/04/13 19:46:16;;;;;;;8.38;6.85;;;;;;;;;;11178367;25;20002;-65
2024/04/13 19:51:16;;;;;;;8.85;6.68;;;;;;;;;;11180530;25;20011;-64
2024/04/13 19:56:16;;;;;;;7.47;5.13;;;;;;;;;;11187648;25;19998;-64
2024/04/13 20:01:19;;;;;;;10.23;5.43;;;;;;;;;;11179615;25;20010;-65
2024/04/13 20:06:21;;;;;;;8.13;4.75;;;;;;;;;;11197883;25;20105;-64
2024/04/13 20:11:22;;;;;;;10.88;4.97;;;;;;;;;;11184378;25;20478;-65
2024/04/13 20:21:41;;;;;;;10.90;4.65;;;;;;;;;;11183961;25;20031;-65
2024/04/13 20:26:41;;;;;;;8.50;4.03;;;;;;;;;;11185330;25;20034;-65
2024/04/13 20:31:44;;;;;;;8.93;4.47;;;;;;;;;;11189450;25;20034;-66
2024/04/13 20:36:45;;;;;;;5.55;4.03;;;;;;;;;;11190229;25;20030;-65
2024/04/13 20:41:45;;;;;;;8.38;3.88;;;;;;;;;;11192730;25;20018;-64
2024/04/13 20:46:48;;;;;;;5.90;3.75;;;;;;;;;;11189767;25;20313;-64
2024/04/13 20:51:48;;;;;;;6.05;3.85;;;;;;;;;;11192689;25;20045;-64
2024/04/13 20:56:49;;;;;;;9.88;4.57;;;;;;;;;;11193017;25;20030;-65
2024/04/13 21:01:55;;;;;;;6.25;4.22;;;;;;;;;;11186900;25;20479;-64
2024/04/13 21:06:57;;;;;;;7.33;4.17;;;;;;;;;;11193764;25;20380;-64
2024/04/13 21:11:57;;;;;;;9.40;3.88;;;;;;;;;;11195998;25;20033;-65
2024/04/13 21:17:01;;;;;;;4.70;4.15;;;;;;;;;;11187722;25;20057;-64
2024/04/13 21:22:01;;;;;;;4.17;3.77;;;;;;;;;;11183426;25;20025;-64
2024/04/13 21:27:02;;;;;;;7.57;4.47;;;;;;;;;;11182653;25;20274;-64
2024/04/13 21:32:05;;;;;;;6.50;4.20;;;;;;;;;;11192196;25;20029;-64
2024/04/13 21:37:06;;;;;;;5.13;4.10;;;;;;;;;;11190431;25;20030;-65
2024/04/13 21:42:10;;;;;;;7.05;4.32;;;;;;;;;;11188966;25;20370;-65
2024/04/13 21:47:13;;;;;;;6.78;4.00;;;;;;;;;;11185009;25;20042;-66
2024/04/13 21:52:14;;;;;;;5.77;4.30;;;;;;;;;;11197201;25;20492;-66
2024/04/13 21:57:14;;;;;;;6.57;4.10;;;;;;;;;;11187211;25;20026;-64
2024/04/13 22:02:17;;;;;;;6.38;4.03;;;;;;;;;;11188961;25;20034;-65
2024/04/13 22:07:18;;;;;;;9.55;4.05;;;;;;;;;;11187433;25;20030;-64
2024/04/13 22:12:18;;;;;;;7.45;4.22;;;;;;;;;;11191713;25;20026;-64
2024/04/13 22:17:21;;;;;;;6.25;4.97;;;;;;;;;;11200241;25;20011;-64
2024/04/13 22:22:24;;;;;;;5.93;4.88;;;;;;;;;;11173636;25;20002;-65
2024/04/13 22:27:24;;;;;;;7.82;4.97;;;;;;;;;;11180362;25;20005;-65
2024/04/13 22:32:27;;;;;;;10.70;4.85;;;;;;;;;;11179701;25;19994;-65
2024/04/13 22:37:28;;;;;;;6.30;4.93;;;;;;;;;;11173994;25;20016;-65
2024/04/13 22:42:29;;;;;;;7.07;5.47;;;;;;;;;;11178981;25;20001;-65
2024/04/13 22:47:32;;;;;;;5.22;4.63;;;;;;;;;;11175816;25;20016;-65
2024/04/13 22:52:33;;;;;;;5.82;4.68;;;;;;;;;;11176500;25;20022;-65
2024/04/13 22:57:33;;;;;;;5.38;4.35;;;;;;;;;;11190140;25;19998;-65
2024/04/13 23:02:36;;;;;;;11.18;5.13;;;;;;;;;;11187868;25;20447;-66
2024/04/13 23:07:36;;;;;;;9.65;5.15;;;;;;;;;;11178123;25;20013;-66
2024/04/13 23:12:36;;;;;;;7.10;6.38;;;;;;;;;;11186916;25;20109;-66
2024/04/13 23:17:39;;;;;;;11.05;5.82;;;;;;;;;;11189124;25;20054;-66
2024/04/13 23:22:40;;;;;;;10.27;5.70;;;;;;;;;;11178475;25;20026;-66
2024/04/13 23:27:40;;;;;;;7.90;6.00;;;;;;;;;;11191141;25;20041;-65
2024/04/13 23:32:43;;;;;;;7.75;5.38;;;;;;;;;;11193440;25;20035;-67
2024/04/13 23:37:43;;;;;;;9.15;5.65;;;;;;;;;;11193362;25;20105;-66
2024/04/13 23:42:44;;;;;;;10.95;5.68;;;;;;;;;;11192837;25;20034;-64
2024/04/13 23:47:47;;;;;;;6.75;5.53;;;;;;;;;;11195410;25;20034;-66
2024/04/13 23:52:47;;;;;;;8.43;5.55;;;;;;;;;;11194104;25;20040;-68
2024/04/13 23:57:47;;;;;;;8.35;5.50;;;;;;;;;;11194377;25;20033;-65
